sensor_id;sensor_type;location;lat;lon;timestamp;P1;durP1;ratioP1;P2;durP2;ratioP2
7473;SDS011;3778;42.572;23.426;2023-02-15T00:00:07;33.63;;;16.10;;
7473;SDS011;3778;42.572;23.426;2023-02-15T00:02:35;25.23;;;14.43;;
7473;SDS011;3778;42.572;23.426;2023-02-15T00:05:02;33.03;;;15.27;;
7473;SDS011;3778;42.572;23.426;2023-02-15T00:07:28;34.63;;;16.40;;
7473;SDS011;3778;42.572;23.426;2023-02-15T00:09:55;36.13;;;17.73;;
7473;SDS011;3778;42.572;23.426;2023-02-15T00:12:22;37.23;;;17.70;;
7473;SDS011;3778;42.572;23.426;2023-02-15T00:14:48;33.40;;;16.70;;
7473;SDS011;3778;42.572;23.426;2023-02-15T00:17:16;40.27;;;19.37;;
7473;SDS011;3778;42.572;23.426;2023-02-15T00:19:43;31.17;;;14.37;;
7473;SDS011;3778;42.572;23.426;2023-02-15T00:22:10;24.40;;;11.33;;
7473;SDS011;3778;42.572;23.426;2023-02-15T00:24:36;32.77;;;14.30;;
7473;SDS011;3778;42.572;23.426;2023-02-15T00:27:03;29.07;;;15.40;;
7473;SDS011;3778;42.572;23.426;2023-02-15T00:29:30;34.00;;;14.53;;
7473;SDS011;3778;42.572;23.426;2023-02-15T00:31:57;28.60;;;13.87;;
7473;SDS011;3778;42.572;23.426;2023-02-15T00:34:25;24.50;;;13.57;;
7473;SDS011;3778;42.572;23.426;2023-02-15T00:36:53;22.47;;;13.57;;
7473;SDS011;3778;42.572;23.426;2023-02-15T00:39:20;32.13;;;14.77;;
7473;SDS011;3778;42.572;23.426;2023-02-15T00:41:48;26.60;;;13.23;;
7473;SDS011;3778;42.572;23.426;2023-02-15T00:44:15;25.00;;;13.27;;
7473;SDS011;3778;42.572;23.426;2023-02-15T00:46:42;27.10;;;14.00;;
7473;SDS011;3778;42.572;23.426;2023-02-15T00:49:09;27.50;;;14.00;;
7473;SDS011;3778;42.572;23.426;2023-02-15T00:51:37;27.50;;;13.33;;
7473;SDS011;3778;42.572;23.426;2023-02-15T00:54:04;30.07;;;14.47;;
7473;SDS011;3778;42.572;23.426;2023-02-15T00:56:31;28.43;;;13.40;;
7473;SDS011;3778;42.572;23.426;2023-02-15T00:58:58;33.73;;;16.00;;
7473;SDS011;3778;42.572;23.426;2023-02-15T01:01:24;41.93;;;19.47;;
7473;SDS011;3778;42.572;23.426;2023-02-15T01:03:51;29.37;;;14.03;;
7473;SDS011;3778;42.572;23.426;2023-02-15T01:06:18;30.77;;;15.00;;
7473;SDS011;3778;42.572;23.426;2023-02-15T01:08:46;30.07;;;15.47;;
7473;SDS011;3778;42.572;23.426;2023-02-15T01:11:14;32.97;;;14.33;;
7473;SDS011;3778;42.572;23.426;2023-02-15T01:13:47;29.43;;;16.03;;
7473;SDS011;3778;42.572;23.426;2023-02-15T01:16:15;36.43;;;15.80;;
7473;SDS011;3778;42.572;23.426;2023-02-15T01:18:42;34.37;;;15.97;;
7473;SDS011;3778;42.572;23.426;2023-02-15T01:21:10;29.53;;;15.97;;
7473;SDS011;3778;42.572;23.426;2023-02-15T01:23:38;32.90;;;16.03;;
7473;SDS011;3778;42.572;23.426;2023-02-15T01:26:07;29.23;;;15.20;;
7473;SDS011;3778;42.572;23.426;2023-02-15T01:28:34;33.03;;;16.97;;
7473;SDS011;3778;42.572;23.426;2023-02-15T01:31:04;30.87;;;14.67;;
7473;SDS011;3778;42.572;23.426;2023-02-15T01:33:31;36.23;;;17.00;;
7473;SDS011;3778;42.572;23.426;2023-02-15T01:35:58;36.80;;;17.60;;
7473;SDS011;3778;42.572;23.426;2023-02-15T01:38:25;36.30;;;17.13;;
7473;SDS011;3778;42.572;23.426;2023-02-15T01:40:52;35.03;;;17.67;;
7473;SDS011;3778;42.572;23.426;2023-02-15T01:43:41;33.53;;;18.33;;
7473;SDS011;3778;42.572;23.426;2023-02-15T01:46:09;37.40;;;18.10;;
7473;SDS011;3778;42.572;23.426;2023-02-15T01:48:39;33.90;;;16.37;;
7473;SDS011;3778;42.572;23.426;2023-02-15T01:51:09;32.57;;;15.10;;
7473;SDS011;3778;42.572;23.426;2023-02-15T01:53:38;33.50;;;18.37;;
7473;SDS011;3778;42.572;23.426;2023-02-15T01:56:09;31.57;;;13.47;;
7473;SDS011;3778;42.572;23.426;2023-02-15T01:58:42;32.57;;;16.33;;
7473;SDS011;3778;42.572;23.426;2023-02-15T02:01:10;32.23;;;16.67;;
7473;SDS011;3778;42.572;23.426;2023-02-15T02:03:38;28.53;;;14.27;;
7473;SDS011;3778;42.572;23.426;2023-02-15T02:06:14;32.27;;;15.07;;
7473;SDS011;3778;42.572;23.426;2023-02-15T02:08:41;28.77;;;15.33;;
7473;SDS011;3778;42.572;23.426;2023-02-15T02:11:09;39.43;;;16.73;;
7473;SDS011;3778;42.572;23.426;2023-02-15T02:13:37;28.63;;;13.93;;
7473;SDS011;3778;42.572;23.426;2023-02-15T02:16:08;26.47;;;13.33;;
7473;SDS011;3778;42.572;23.426;2023-02-15T02:18:43;30.70;;;15.30;;
7473;SDS011;3778;42.572;23.426;2023-02-15T02:21:29;29.63;;;14.43;;
7473;SDS011;3778;42.572;23.426;2023-02-15T02:24:49;31.87;;;14.83;;
7473;SDS011;3778;42.572;23.426;2023-02-15T02:27:39;30.73;;;16.27;;
7473;SDS011;3778;42.572;23.426;2023-02-15T02:33:33;18.30;;;9.30;;
7473;SDS011;3778;42.572;23.426;2023-02-15T02:36:22;28.53;;;14.93;;
7473;SDS011;3778;42.572;23.426;2023-02-15T02:39:01;25.33;;;13.20;;
7473;SDS011;3778;42.572;23.426;2023-02-15T02:41:38;31.30;;;16.27;;
7473;SDS011;3778;42.572;23.426;2023-02-15T02:44:12;23.43;;;12.77;;
7473;SDS011;3778;42.572;23.426;2023-02-15T02:46:48;35.50;;;17.57;;
7473;SDS011;3778;42.572;23.426;2023-02-15T02:49:28;30.87;;;16.97;;
7473;SDS011;3778;42.572;23.426;2023-02-15T02:51:59;27.07;;;13.77;;
7473;SDS011;3778;42.572;23.426;2023-02-15T02:54:26;28.13;;;13.87;;
7473;SDS011;3778;42.572;23.426;2023-02-15T02:56:54;32.90;;;15.60;;
7473;SDS011;3778;42.572;23.426;2023-02-15T02:59:23;27.03;;;12.87;;
7473;SDS011;3778;42.572;23.426;2023-02-15T03:01:57;28.93;;;13.67;;
7473;SDS011;3778;42.572;23.426;2023-02-15T03:04:30;26.40;;;14.10;;
7473;SDS011;3778;42.572;23.426;2023-02-15T03:07:01;31.93;;;14.70;;
7473;SDS011;3778;42.572;23.426;2023-02-15T03:09:34;34.43;;;16.20;;
7473;SDS011;3778;42.572;23.426;2023-02-15T03:12:07;30.40;;;14.17;;
7473;SDS011;3778;42.572;23.426;2023-02-15T03:14:36;34.00;;;15.30;;
7473;SDS011;3778;42.572;23.426;2023-02-15T03:17:05;33.67;;;16.67;;
7473;SDS011;3778;42.572;23.426;2023-02-15T03:19:37;31.47;;;14.80;;
7473;SDS011;3778;42.572;23.426;2023-02-15T03:22:06;30.10;;;15.23;;
7473;SDS011;3778;42.572;23.426;2023-02-15T03:24:37;28.27;;;14.67;;
7473;SDS011;3778;42.572;23.426;2023-02-15T03:27:11;31.57;;;15.10;;
7473;SDS011;3778;42.572;23.426;2023-02-15T03:29:44;28.37;;;14.90;;
7473;SDS011;3778;42.572;23.426;2023-02-15T03:32:13;29.03;;;14.40;;
7473;SDS011;3778;42.572;23.426;2023-02-15T03:34:43;34.83;;;16.23;;
7473;SDS011;3778;42.572;23.426;2023-02-15T03:37:10;22.30;;;10.97;;
7473;SDS011;3778;42.572;23.426;2023-02-15T03:39:42;32.07;;;15.53;;
7473;SDS011;3778;42.572;23.426;2023-02-15T03:42:16;27.53;;;13.97;;
7473;SDS011;3778;42.572;23.426;2023-02-15T03:44:51;29.57;;;14.20;;
7473;SDS011;3778;42.572;23.426;2023-02-15T03:47:24;32.00;;;14.90;;
7473;SDS011;3778;42.572;23.426;2023-02-15T03:49:56;34.80;;;14.13;;
7473;SDS011;3778;42.572;23.426;2023-02-15T03:52:26;25.63;;;13.57;;
7473;SDS011;3778;42.572;23.426;2023-02-15T03:54:54;25.03;;;12.47;;
7473;SDS011;3778;42.572;23.426;2023-02-15T03:57:22;31.23;;;14.30;;
7473;SDS011;3778;42.572;23.426;2023-02-15T04:00:11;29.73;;;13.67;;
7473;SDS011;3778;42.572;23.426;2023-02-15T04:05:51;21.63;;;13.10;;
7473;SDS011;3778;42.572;23.426;2023-02-15T04:08:18;25.53;;;13.00;;
7473;SDS011;3778;42.572;23.426;2023-02-15T04:10:45;26.57;;;12.90;;
7473;SDS011;3778;42.572;23.426;2023-02-15T04:13:21;24.33;;;12.87;;
7473;SDS011;3778;42.572;23.426;2023-02-15T04:15:50;22.13;;;11.93;;
7473;SDS011;3778;42.572;23.426;2023-02-15T04:18:28;22.70;;;10.67;;
7473;SDS011;3778;42.572;23.426;2023-02-15T04:21:13;29.60;;;13.47;;
7473;SDS011;3778;42.572;23.426;2023-02-15T04:23:58;21.97;;;12.90;;
7473;SDS011;3778;42.572;23.426;2023-02-15T04:26:42;28.43;;;13.97;;
7473;SDS011;3778;42.572;23.426;2023-02-15T04:29:08;24.03;;;11.63;;
7473;SDS011;3778;42.572;23.426;2023-02-15T04:31:35;29.83;;;15.30;;
7473;SDS011;3778;42.572;23.426;2023-02-15T04:34:02;30.47;;;15.77;;
7473;SDS011;3778;42.572;23.426;2023-02-15T04:36:30;35.40;;;16.43;;
7473;SDS011;3778;42.572;23.426;2023-02-15T04:38:56;33.40;;;15.43;;
7473;SDS011;3778;42.572;23.426;2023-02-15T04:41:23;32.20;;;13.90;;
7473;SDS011;3778;42.572;23.426;2023-02-15T04:43:50;28.50;;;15.00;;
7473;SDS011;3778;42.572;23.426;2023-02-15T04:46:17;26.23;;;12.90;;
7473;SDS011;3778;42.572;23.426;2023-02-15T04:48:43;24.87;;;12.40;;
7473;SDS011;3778;42.572;23.426;2023-02-15T04:51:10;23.57;;;14.10;;
7473;SDS011;3778;42.572;23.426;2023-02-15T04:53:38;24.57;;;12.67;;
7473;SDS011;3778;42.572;23.426;2023-02-15T04:56:05;27.33;;;12.00;;
7473;SDS011;3778;42.572;23.426;2023-02-15T04:58:32;30.07;;;14.37;;
7473;SDS011;3778;42.572;23.426;2023-02-15T05:00:58;23.17;;;11.73;;
7473;SDS011;3778;42.572;23.426;2023-02-15T05:03:25;28.23;;;13.33;;
7473;SDS011;3778;42.572;23.426;2023-02-15T05:05:52;23.77;;;11.00;;
7473;SDS011;3778;42.572;23.426;2023-02-15T05:08:18;30.77;;;13.73;;
7473;SDS011;3778;42.572;23.426;2023-02-15T05:10:48;30.20;;;15.63;;
7473;SDS011;3778;42.572;23.426;2023-02-15T05:13:15;30.63;;;15.03;;
7473;SDS011;3778;42.572;23.426;2023-02-15T05:15:46;30.97;;;13.83;;
7473;SDS011;3778;42.572;23.426;2023-02-15T05:18:13;27.10;;;15.23;;
7473;SDS011;3778;42.572;23.426;2023-02-15T05:20:40;25.57;;;13.63;;
7473;SDS011;3778;42.572;23.426;2023-02-15T05:23:06;23.10;;;12.57;;
7473;SDS011;3778;42.572;23.426;2023-02-15T05:25:33;26.47;;;12.67;;
7473;SDS011;3778;42.572;23.426;2023-02-15T05:28:19;25.33;;;12.53;;
7473;SDS011;3778;42.572;23.426;2023-02-15T05:30:46;24.13;;;13.03;;
7473;SDS011;3778;42.572;23.426;2023-02-15T05:33:12;31.83;;;15.20;;
7473;SDS011;3778;42.572;23.426;2023-02-15T05:35:39;34.40;;;14.47;;
7473;SDS011;3778;42.572;23.426;2023-02-15T05:38:06;25.27;;;13.73;;
7473;SDS011;3778;42.572;23.426;2023-02-15T05:40:33;28.27;;;14.10;;
7473;SDS011;3778;42.572;23.426;2023-02-15T05:43:00;23.37;;;12.50;;
7473;SDS011;3778;42.572;23.426;2023-02-15T05:45:28;21.13;;;11.33;;
7473;SDS011;3778;42.572;23.426;2023-02-15T05:47:55;39.03;;;12.80;;
7473;SDS011;3778;42.572;23.426;2023-02-15T05:50:23;25.67;;;12.10;;
7473;SDS011;3778;42.572;23.426;2023-02-15T05:52:49;24.90;;;12.67;;
7473;SDS011;3778;42.572;23.426;2023-02-15T05:55:16;24.13;;;13.20;;
7473;SDS011;3778;42.572;23.426;2023-02-15T05:57:43;32.40;;;14.50;;
7473;SDS011;3778;42.572;23.426;2023-02-15T06:00:11;27.33;;;15.33;;
7473;SDS011;3778;42.572;23.426;2023-02-15T06:02:40;21.30;;;11.63;;
7473;SDS011;3778;42.572;23.426;2023-02-15T06:05:07;25.67;;;12.93;;
7473;SDS011;3778;42.572;23.426;2023-02-15T06:07:34;17.43;;;10.37;;
7473;SDS011;3778;42.572;23.426;2023-02-15T06:10:01;23.33;;;11.17;;
7473;SDS011;3778;42.572;23.426;2023-02-15T06:12:28;21.23;;;10.73;;
7473;SDS011;3778;42.572;23.426;2023-02-15T06:14:55;22.63;;;11.70;;
7473;SDS011;3778;42.572;23.426;2023-02-15T06:17:22;20.10;;;10.40;;
7473;SDS011;3778;42.572;23.426;2023-02-15T06:19:50;24.00;;;11.03;;
7473;SDS011;3778;42.572;23.426;2023-02-15T06:22:17;25.83;;;13.20;;
7473;SDS011;3778;42.572;23.426;2023-02-15T06:24:43;24.27;;;12.70;;
7473;SDS011;3778;42.572;23.426;2023-02-15T06:27:10;22.10;;;11.13;;
7473;SDS011;3778;42.572;23.426;2023-02-15T06:29:37;22.07;;;11.93;;
7473;SDS011;3778;42.572;23.426;2023-02-15T06:32:04;28.67;;;13.20;;
7473;SDS011;3778;42.572;23.426;2023-02-15T06:34:31;24.33;;;11.80;;
7473;SDS011;3778;42.572;23.426;2023-02-15T06:36:59;24.50;;;12.50;;
7473;SDS011;3778;42.572;23.426;2023-02-15T06:39:26;27.07;;;12.43;;
7473;SDS011;3778;42.572;23.426;2023-02-15T06:41:53;20.80;;;11.20;;
7473;SDS011;3778;42.572;23.426;2023-02-15T06:44:19;19.13;;;10.00;;
7473;SDS011;3778;42.572;23.426;2023-02-15T06:46:46;19.40;;;10.33;;
7473;SDS011;3778;42.572;23.426;2023-02-15T06:49:13;23.33;;;10.87;;
7473;SDS011;3778;42.572;23.426;2023-02-15T06:51:39;20.73;;;10.30;;
7473;SDS011;3778;42.572;23.426;2023-02-15T06:54:07;25.43;;;12.37;;
7473;SDS011;3778;42.572;23.426;2023-02-15T06:56:34;24.03;;;12.70;;
7473;SDS011;3778;42.572;23.426;2023-02-15T06:59:01;27.07;;;12.33;;
7473;SDS011;3778;42.572;23.426;2023-02-15T07:01:28;28.10;;;12.20;;
7473;SDS011;3778;42.572;23.426;2023-02-15T07:03:55;26.00;;;12.40;;
7473;SDS011;3778;42.572;23.426;2023-02-15T07:06:22;24.03;;;12.37;;
7473;SDS011;3778;42.572;23.426;2023-02-15T07:08:48;22.17;;;12.13;;
7473;SDS011;3778;42.572;23.426;2023-02-15T07:11:16;22.67;;;12.03;;
7473;SDS011;3778;42.572;23.426;2023-02-15T07:14:00;28.67;;;14.33;;
7473;SDS011;3778;42.572;23.426;2023-02-15T07:16:27;28.77;;;13.07;;
7473;SDS011;3778;42.572;23.426;2023-02-15T07:18:54;22.20;;;11.93;;
7473;SDS011;3778;42.572;23.426;2023-02-15T07:21:21;24.07;;;12.50;;
7473;SDS011;3778;42.572;23.426;2023-02-15T07:23:47;26.80;;;12.67;;
7473;SDS011;3778;42.572;23.426;2023-02-15T07:26:14;20.30;;;12.07;;
7473;SDS011;3778;42.572;23.426;2023-02-15T07:28:42;16.40;;;9.00;;
7473;SDS011;3778;42.572;23.426;2023-02-15T07:31:09;19.47;;;10.63;;
7473;SDS011;3778;42.572;23.426;2023-02-15T07:33:36;29.27;;;12.37;;
7473;SDS011;3778;42.572;23.426;2023-02-15T07:36:03;26.43;;;11.00;;
7473;SDS011;3778;42.572;23.426;2023-02-15T07:38:31;24.43;;;12.60;;
7473;SDS011;3778;42.572;23.426;2023-02-15T07:40:59;16.17;;;9.77;;
7473;SDS011;3778;42.572;23.426;2023-02-15T07:43:27;14.43;;;8.80;;
7473;SDS011;3778;42.572;23.426;2023-02-15T07:45:57;16.60;;;9.83;;
7473;SDS011;3778;42.572;23.426;2023-02-15T07:48:25;15.17;;;8.70;;
7473;SDS011;3778;42.572;23.426;2023-02-15T07:50:52;22.40;;;11.30;;
7473;SDS011;3778;42.572;23.426;2023-02-15T07:53:18;22.63;;;10.87;;
7473;SDS011;3778;42.572;23.426;2023-02-15T07:55:45;15.50;;;8.60;;
7473;SDS011;3778;42.572;23.426;2023-02-15T07:58:12;23.10;;;12.27;;
7473;SDS011;3778;42.572;23.426;2023-02-15T08:00:38;14.83;;;8.87;;
7473;SDS011;3778;42.572;23.426;2023-02-15T08:03:20;19.20;;;10.13;;
7473;SDS011;3778;42.572;23.426;2023-02-15T08:05:51;17.30;;;9.13;;
7473;SDS011;3778;42.572;23.426;2023-02-15T08:08:23;25.67;;;13.33;;
7473;SDS011;3778;42.572;23.426;2023-02-15T08:10:59;15.57;;;7.70;;
7473;SDS011;3778;42.572;23.426;2023-02-15T08:13:45;29.87;;;11.83;;
7473;SDS011;3778;42.572;23.426;2023-02-15T08:16:19;11.73;;;6.23;;
7473;SDS011;3778;42.572;23.426;2023-02-15T08:18:48;17.90;;;9.77;;
7473;SDS011;3778;42.572;23.426;2023-02-15T08:21:14;17.07;;;9.23;;
7473;SDS011;3778;42.572;23.426;2023-02-15T08:23:41;20.93;;;9.90;;
7473;SDS011;3778;42.572;23.426;2023-02-15T08:26:08;13.23;;;7.00;;
7473;SDS011;3778;42.572;23.426;2023-02-15T08:28:34;15.93;;;8.47;;
7473;SDS011;3778;42.572;23.426;2023-02-15T08:31:04;16.90;;;9.17;;
7473;SDS011;3778;42.572;23.426;2023-02-15T08:33:32;20.40;;;10.70;;
7473;SDS011;3778;42.572;23.426;2023-02-15T08:36:03;20.43;;;10.07;;
7473;SDS011;3778;42.572;23.426;2023-02-15T08:38:31;21.50;;;10.00;;
7473;SDS011;3778;42.572;23.426;2023-02-15T08:40:58;11.60;;;8.00;;
7473;SDS011;3778;42.572;23.426;2023-02-15T08:43:34;15.87;;;8.80;;
7473;SDS011;3778;42.572;23.426;2023-02-15T08:46:01;11.23;;;7.40;;
7473;SDS011;3778;42.572;23.426;2023-02-15T08:48:27;10.83;;;7.13;;
7473;SDS011;3778;42.572;23.426;2023-02-15T08:50:54;18.67;;;8.20;;
7473;SDS011;3778;42.572;23.426;2023-02-15T08:53:22;15.60;;;7.90;;
7473;SDS011;3778;42.572;23.426;2023-02-15T08:55:54;13.90;;;8.13;;
7473;SDS011;3778;42.572;23.426;2023-02-15T08:58:22;19.43;;;8.53;;
7473;SDS011;3778;42.572;23.426;2023-02-15T09:00:48;24.87;;;10.67;;
7473;SDS011;3778;42.572;23.426;2023-02-15T09:03:15;15.83;;;7.77;;
7473;SDS011;3778;42.572;23.426;2023-02-15T09:05:42;13.43;;;8.57;;
7473;SDS011;3778;42.572;23.426;2023-02-15T09:08:08;16.30;;;8.73;;
7473;SDS011;3778;42.572;23.426;2023-02-15T09:10:37;16.20;;;8.93;;
7473;SDS011;3778;42.572;23.426;2023-02-15T09:13:03;13.83;;;7.47;;
7473;SDS011;3778;42.572;23.426;2023-02-15T09:15:30;15.93;;;8.27;;
7473;SDS011;3778;42.572;23.426;2023-02-15T09:17:57;19.57;;;9.60;;
7473;SDS011;3778;42.572;23.426;2023-02-15T09:20:24;21.63;;;11.07;;
7473;SDS011;3778;42.572;23.426;2023-02-15T09:22:51;14.00;;;8.37;;
7473;SDS011;3778;42.572;23.426;2023-02-15T09:25:19;15.33;;;8.73;;
7473;SDS011;3778;42.572;23.426;2023-02-15T09:27:47;20.50;;;10.90;;
7473;SDS011;3778;42.572;23.426;2023-02-15T09:30:14;18.30;;;10.33;;
7473;SDS011;3778;42.572;23.426;2023-02-15T09:32:41;18.50;;;9.67;;
7473;SDS011;3778;42.572;23.426;2023-02-15T09:35:07;17.00;;;9.23;;
7473;SDS011;3778;42.572;23.426;2023-02-15T09:37:34;18.70;;;8.30;;
7473;SDS011;3778;42.572;23.426;2023-02-15T09:40:01;14.80;;;8.47;;
7473;SDS011;3778;42.572;23.426;2023-02-15T09:42:31;18.20;;;9.70;;
7473;SDS011;3778;42.572;23.426;2023-02-15T09:45:16;12.03;;;7.70;;
7473;SDS011;3778;42.572;23.426;2023-02-15T09:48:11;18.27;;;8.53;;
7473;SDS011;3778;42.572;23.426;2023-02-15T09:50:57;19.20;;;9.43;;
7473;SDS011;3778;42.572;23.426;2023-02-15T09:53:36;19.37;;;11.27;;
7473;SDS011;3778;42.572;23.426;2023-02-15T09:56:14;16.20;;;10.20;;
7473;SDS011;3778;42.572;23.426;2023-02-15T09:58:50;13.23;;;7.63;;
7473;SDS011;3778;42.572;23.426;2023-02-15T10:01:27;13.57;;;8.33;;
7473;SDS011;3778;42.572;23.426;2023-02-15T10:04:07;19.23;;;9.47;;
7473;SDS011;3778;42.572;23.426;2023-02-15T10:06:48;16.63;;;8.47;;
7473;SDS011;3778;42.572;23.426;2023-02-15T10:09:29;17.53;;;10.67;;
7473;SDS011;3778;42.572;23.426;2023-02-15T10:12:18;17.27;;;8.70;;
7473;SDS011;3778;42.572;23.426;2023-02-15T10:15:07;18.63;;;10.70;;
7473;SDS011;3778;42.572;23.426;2023-02-15T10:18:10;19.17;;;10.53;;
7473;SDS011;3778;42.572;23.426;2023-02-15T10:20:51;17.07;;;10.03;;
7473;SDS011;3778;42.572;23.426;2023-02-15T10:23:33;26.00;;;12.10;;
7473;SDS011;3778;42.572;23.426;2023-02-15T10:26:11;17.33;;;10.10;;
7473;SDS011;3778;42.572;23.426;2023-02-15T10:28:43;17.67;;;10.97;;
7473;SDS011;3778;42.572;23.426;2023-02-15T10:31:17;17.00;;;9.93;;
7473;SDS011;3778;42.572;23.426;2023-02-15T10:33:53;21.37;;;10.97;;
7473;SDS011;3778;42.572;23.426;2023-02-15T10:36:32;19.70;;;12.70;;
7473;SDS011;3778;42.572;23.426;2023-02-15T10:39:15;19.27;;;7.80;;
7473;SDS011;3778;42.572;23.426;2023-02-15T10:41:53;23.80;;;11.97;;
7473;SDS011;3778;42.572;23.426;2023-02-15T10:44:34;18.17;;;8.70;;
7473;SDS011;3778;42.572;23.426;2023-02-15T10:50:19;19.90;;;10.47;;
7473;SDS011;3778;42.572;23.426;2023-02-15T10:55:51;18.90;;;10.30;;
7473;SDS011;3778;42.572;23.426;2023-02-15T10:58:24;22.50;;;12.63;;
7473;SDS011;3778;42.572;23.426;2023-02-15T11:01:02;20.13;;;10.60;;
7473;SDS011;3778;42.572;23.426;2023-02-15T11:03:48;21.67;;;11.87;;
7473;SDS011;3778;42.572;23.426;2023-02-15T11:06:33;22.10;;;10.67;;
7473;SDS011;3778;42.572;23.426;2023-02-15T11:09:03;18.97;;;9.60;;
7473;SDS011;3778;42.572;23.426;2023-02-15T11:11:36;18.63;;;10.47;;
7473;SDS011;3778;42.572;23.426;2023-02-15T11:14:09;16.27;;;9.20;;
7473;SDS011;3778;42.572;23.426;2023-02-15T11:16:42;17.70;;;9.07;;
7473;SDS011;3778;42.572;23.426;2023-02-15T11:19:16;18.67;;;11.93;;
7473;SDS011;3778;42.572;23.426;2023-02-15T11:21:50;22.37;;;12.63;;
7473;SDS011;3778;42.572;23.426;2023-02-15T11:24:21;22.33;;;11.97;;
7473;SDS011;3778;42.572;23.426;2023-02-15T11:26:54;22.10;;;10.27;;
7473;SDS011;3778;42.572;23.426;2023-02-15T11:29:25;20.17;;;9.83;;
7473;SDS011;3778;42.572;23.426;2023-02-15T11:32:01;22.20;;;11.73;;
7473;SDS011;3778;42.572;23.426;2023-02-15T11:34:40;19.50;;;11.43;;
7473;SDS011;3778;42.572;23.426;2023-02-15T11:37:18;19.67;;;10.53;;
7473;SDS011;3778;42.572;23.426;2023-02-15T11:39:50;20.20;;;10.67;;
7473;SDS011;3778;42.572;23.426;2023-02-15T11:42:20;26.27;;;11.83;;
7473;SDS011;3778;42.572;23.426;2023-02-15T11:44:51;22.83;;;11.90;;
7473;SDS011;3778;42.572;23.426;2023-02-15T11:47:25;24.17;;;11.97;;
7473;SDS011;3778;42.572;23.426;2023-02-15T11:49:52;19.97;;;10.57;;
7473;SDS011;3778;42.572;23.426;2023-02-15T11:52:20;14.20;;;9.70;;
7473;SDS011;3778;42.572;23.426;2023-02-15T11:54:47;25.10;;;11.90;;
7473;SDS011;3778;42.572;23.426;2023-02-15T11:57:17;22.80;;;11.40;;
7473;SDS011;3778;42.572;23.426;2023-02-15T11:59:49;18.27;;;10.37;;
7473;SDS011;3778;42.572;23.426;2023-02-15T12:02:19;19.53;;;11.33;;
7473;SDS011;3778;42.572;23.426;2023-02-15T12:04:48;24.53;;;13.13;;
7473;SDS011;3778;42.572;23.426;2023-02-15T12:07:23;25.37;;;13.97;;
7473;SDS011;3778;42.572;23.426;2023-02-15T12:09:55;22.73;;;12.50;;
7473;SDS011;3778;42.572;23.426;2023-02-15T12:12:30;15.50;;;8.97;;
7473;SDS011;3778;42.572;23.426;2023-02-15T12:14:58;23.90;;;11.80;;
7473;SDS011;3778;42.572;23.426;2023-02-15T12:17:27;22.30;;;11.80;;
7473;SDS011;3778;42.572;23.426;2023-02-15T12:19:56;22.17;;;11.83;;
7473;SDS011;3778;42.572;23.426;2023-02-15T12:22:27;21.43;;;12.37;;
7473;SDS011;3778;42.572;23.426;2023-02-15T12:24:58;20.60;;;11.63;;
7473;SDS011;3778;42.572;23.426;2023-02-15T12:27:26;22.63;;;12.00;;
7473;SDS011;3778;42.572;23.426;2023-02-15T12:29:56;22.90;;;11.90;;
7473;SDS011;3778;42.572;23.426;2023-02-15T12:32:26;24.27;;;12.27;;
7473;SDS011;3778;42.572;23.426;2023-02-15T12:34:59;21.13;;;11.73;;
7473;SDS011;3778;42.572;23.426;2023-02-15T12:37:34;28.60;;;11.43;;
7473;SDS011;3778;42.572;23.426;2023-02-15T12:40:02;20.97;;;11.33;;
7473;SDS011;3778;42.572;23.426;2023-02-15T12:42:45;20.07;;;11.63;;
7473;SDS011;3778;42.572;23.426;2023-02-15T12:45:22;22.73;;;12.93;;
7473;SDS011;3778;42.572;23.426;2023-02-15T12:48:07;24.57;;;13.13;;
7473;SDS011;3778;42.572;23.426;2023-02-15T12:50:42;19.97;;;10.37;;
7473;SDS011;3778;42.572;23.426;2023-02-15T12:53:14;19.63;;;11.83;;
7473;SDS011;3778;42.572;23.426;2023-02-15T12:55:52;19.27;;;11.20;;
7473;SDS011;3778;42.572;23.426;2023-02-15T12:58:21;24.37;;;12.93;;
7473;SDS011;3778;42.572;23.426;2023-02-15T13:01:00;17.47;;;11.40;;
7473;SDS011;3778;42.572;23.426;2023-02-15T13:03:30;24.80;;;13.53;;
7473;SDS011;3778;42.572;23.426;2023-02-15T13:05:56;20.47;;;11.97;;
7473;SDS011;3778;42.572;23.426;2023-02-15T13:08:28;17.97;;;10.97;;
7473;SDS011;3778;42.572;23.426;2023-02-15T13:10:57;20.97;;;12.60;;
7473;SDS011;3778;42.572;23.426;2023-02-15T13:13:29;26.80;;;14.97;;
7473;SDS011;3778;42.572;23.426;2023-02-15T13:15:58;20.27;;;12.30;;
7473;SDS011;3778;42.572;23.426;2023-02-15T13:18:30;20.57;;;13.03;;
7473;SDS011;3778;42.572;23.426;2023-02-15T13:21:00;20.03;;;12.07;;
7473;SDS011;3778;42.572;23.426;2023-02-15T13:23:37;19.63;;;12.70;;
7473;SDS011;3778;42.572;23.426;2023-02-15T13:26:08;23.67;;;13.70;;
7473;SDS011;3778;42.572;23.426;2023-02-15T13:28:41;27.07;;;15.47;;
7473;SDS011;3778;42.572;23.426;2023-02-15T13:31:12;23.70;;;14.87;;
7473;SDS011;3778;42.572;23.426;2023-02-15T13:33:42;23.40;;;13.67;;
7473;SDS011;3778;42.572;23.426;2023-02-15T13:36:12;29.23;;;16.10;;
7473;SDS011;3778;42.572;23.426;2023-02-15T13:38:50;26.67;;;14.33;;
7473;SDS011;3778;42.572;23.426;2023-02-15T13:41:25;27.87;;;13.37;;
7473;SDS011;3778;42.572;23.426;2023-02-15T13:43:59;23.97;;;13.93;;
7473;SDS011;3778;42.572;23.426;2023-02-15T13:46:40;24.33;;;13.60;;
7473;SDS011;3778;42.572;23.426;2023-02-15T13:49:17;23.70;;;13.03;;
7473;SDS011;3778;42.572;23.426;2023-02-15T13:51:57;27.57;;;15.37;;
7473;SDS011;3778;42.572;23.426;2023-02-15T13:54:43;21.70;;;12.97;;
7473;SDS011;3778;42.572;23.426;2023-02-15T13:57:28;22.73;;;14.43;;
7473;SDS011;3778;42.572;23.426;2023-02-15T14:00:11;21.27;;;12.30;;
7473;SDS011;3778;42.572;23.426;2023-02-15T14:03:01;24.37;;;13.00;;
7473;SDS011;3778;42.572;23.426;2023-02-15T14:06:03;24.37;;;14.33;;
7473;SDS011;3778;42.572;23.426;2023-02-15T14:08:47;23.57;;;12.83;;
7473;SDS011;3778;42.572;23.426;2023-02-15T14:11:27;23.03;;;13.30;;
7473;SDS011;3778;42.572;23.426;2023-02-15T14:14:06;28.07;;;15.70;;
7473;SDS011;3778;42.572;23.426;2023-02-15T14:16:48;24.87;;;14.53;;
7473;SDS011;3778;42.572;23.426;2023-02-15T14:19:22;20.83;;;10.43;;
7473;SDS011;3778;42.572;23.426;2023-02-15T14:21:56;22.03;;;12.53;;
7473;SDS011;3778;42.572;23.426;2023-02-15T14:24:29;25.40;;;13.43;;
7473;SDS011;3778;42.572;23.426;2023-02-15T14:27:06;17.30;;;11.10;;
7473;SDS011;3778;42.572;23.426;2023-02-15T14:29:43;25.43;;;13.53;;
7473;SDS011;3778;42.572;23.426;2023-02-15T14:32:16;31.40;;;15.00;;
7473;SDS011;3778;42.572;23.426;2023-02-15T14:34:50;33.37;;;16.20;;
7473;SDS011;3778;42.572;23.426;2023-02-15T14:37:20;28.17;;;14.30;;
7473;SDS011;3778;42.572;23.426;2023-02-15T14:39:55;31.83;;;15.80;;
7473;SDS011;3778;42.572;23.426;2023-02-15T14:42:48;24.27;;;12.47;;
7473;SDS011;3778;42.572;23.426;2023-02-15T14:45:21;22.57;;;12.10;;
7473;SDS011;3778;42.572;23.426;2023-02-15T14:47:56;20.97;;;12.23;;
7473;SDS011;3778;42.572;23.426;2023-02-15T14:50:38;32.10;;;14.37;;
7473;SDS011;3778;42.572;23.426;2023-02-15T14:56:16;28.63;;;12.67;;
7473;SDS011;3778;42.572;23.426;2023-02-15T15:01:55;24.77;;;12.60;;
7473;SDS011;3778;42.572;23.426;2023-02-15T15:04:28;25.43;;;14.17;;
7473;SDS011;3778;42.572;23.426;2023-02-15T15:06:59;28.63;;;15.20;;
7473;SDS011;3778;42.572;23.426;2023-02-15T15:09:32;28.63;;;13.17;;
7473;SDS011;3778;42.572;23.426;2023-02-15T15:15:06;32.60;;;14.37;;
7473;SDS011;3778;42.572;23.426;2023-02-15T15:20:40;27.03;;;14.27;;
7473;SDS011;3778;42.572;23.426;2023-02-15T15:26:26;30.07;;;16.83;;
7473;SDS011;3778;42.572;23.426;2023-02-15T15:28:59;36.77;;;18.40;;